createdAt,value
2018-08-22T00:01:57.497Z,99320.94
2018-08-22T00:04:59.751Z,99322.16
2018-08-22T00:08:02.009Z,99320.42
2018-08-22T00:11:04.277Z,99320.52
2018-08-22T00:14:06.535Z,99325.17
2018-08-22T00:17:13.069Z,99320.45
2018-08-22T00:20:15.388Z,99317.64
2018-08-22T00:23:17.596Z,99317.73
2018-08-22T00:26:19.797Z,99319.78
2018-08-22T00:29:22.060Z,99316.72
2018-08-22T00:32:24.213Z,99314.93
2018-08-22T00:35:26.397Z,99317.52
2018-08-22T00:38:28.556Z,99314.44
2018-08-22T00:41:32.001Z,99311.57
2018-08-22T00:44:34.241Z,99308.31
2018-08-22T00:47:36.508Z,99312.58
2018-08-22T00:50:38.677Z,99312.04
2018-08-22T00:53:40.827Z,99301.15
2018-08-22T00:56:42.956Z,99303.78
2018-08-22T00:59:45.160Z,99300.53
2018-08-22T01:02:47.321Z,99299.41
2018-08-22T01:05:49.611Z,99289.48
2018-08-22T01:08:51.796Z,99296.69
2018-08-22T01:11:54.042Z,99296.07
2018-08-22T01:14:56.254Z,99295.34
2018-08-22T01:17:58.428Z,99289.02
2018-08-22T01:21:00.688Z,99288.79
2018-08-22T01:24:02.866Z,99291.58
2018-08-22T01:27:05.048Z,99284.33
2018-08-22T01:30:07.395Z,99287.55
2018-08-22T01:33:09.597Z,99291.77
2018-08-22T01:36:11.855Z,99289.47
2018-08-22T01:39:14.140Z,99283.00
2018-08-22T01:42:16.861Z,99287.69
2018-08-22T01:45:19.084Z,99288.83
2018-08-22T01:48:21.620Z,99286.08
2018-08-22T01:51:23.860Z,99287.27
2018-08-22T01:54:26.217Z,99284.13
2018-08-22T01:57:28.497Z,99284.76
2018-08-22T02:00:30.712Z,99282.87
2018-08-22T02:03:32.927Z,99279.55
2018-08-22T02:06:35.193Z,99283.42
2018-08-22T02:09:37.429Z,99277.34
2018-08-22T02:12:39.597Z,99272.88
2018-08-22T02:15:41.834Z,99274.20
2018-08-22T02:18:44.195Z,99274.66
2018-08-22T02:21:47.445Z,99274.73
2018-08-22T02:24:49.635Z,99277.30
2018-08-22T02:27:51.934Z,99276.87
2018-08-22T02:30:54.107Z,99282.83
2018-08-22T02:33:56.476Z,99280.95
2018-08-22T02:36:58.662Z,99276.88
2018-08-22T02:40:00.785Z,99281.33
2018-08-22T02:43:03.041Z,99284.97
2018-08-22T02:46:05.517Z,99280.70
2018-08-22T02:49:12.305Z,99278.20
2018-08-22T02:52:15.512Z,99276.38
2018-08-22T02:55:17.652Z,99271.11
2018-08-22T02:58:19.832Z,99267.86
2018-08-22T03:01:22.049Z,99274.94
2018-08-22T03:04:24.239Z,99276.13
2018-08-22T03:07:26.611Z,99283.09
2018-08-22T03:10:28.879Z,99282.16
2018-08-22T03:13:31.116Z,99281.84
2018-08-22T03:16:33.330Z,99277.08
2018-08-22T03:19:35.622Z,99278.14
2018-08-22T03:22:37.848Z,99281.20
2018-08-22T03:25:40.182Z,99270.70
2018-08-22T03:28:42.388Z,99271.14
2018-08-22T03:31:44.621Z,99267.58
2018-08-22T03:34:46.806Z,99266.92
2018-08-22T03:37:49.046Z,99265.14
2018-08-22T03:40:51.253Z,99256.97
2018-08-22T03:43:53.620Z,99258.09
2018-08-22T03:46:55.936Z,99268.39
2018-08-22T03:49:59.370Z,99266.84
2018-08-22T03:53:01.653Z,99263.77
2018-08-22T03:56:03.837Z,99258.02
2018-08-22T03:59:06.183Z,99265.48
2018-08-22T04:02:08.454Z,99264.66
2018-08-22T04:05:10.645Z,99264.23
2018-08-22T04:08:12.954Z,99260.53
2018-08-22T04:11:15.204Z,99262.85
2018-08-22T04:14:17.524Z,99265.17
2018-08-22T04:17:19.909Z,99263.55
2018-08-22T04:20:22.142Z,99264.10
2018-08-22T04:23:24.529Z,99265.16
2018-08-22T04:26:26.858Z,99266.73
2018-08-22T04:29:29.142Z,99269.30
2018-08-22T04:32:31.539Z,99266.28
2018-08-22T04:35:33.793Z,99266.02
2018-08-22T04:38:36.052Z,99270.47
2018-08-22T04:41:38.397Z,99262.42
2018-08-22T04:44:40.823Z,99266.73
2018-08-22T04:47:43.117Z,99270.64
2018-08-22T04:50:45.398Z,99271.41
2018-08-22T04:53:47.668Z,99274.91
2018-08-22T04:56:49.857Z,99277.16
2018-08-22T04:59:52.085Z,99273.87
2018-08-22T05:02:54.260Z,99279.09
2018-08-22T05:05:56.423Z,99279.41
2018-08-22T05:08:58.691Z,99280.00
2018-08-22T05:12:00.972Z,99277.87
2018-08-22T05:15:03.291Z,99271.03
2018-08-22T05:18:05.733Z,99269.09
2018-08-22T05:21:08.050Z,99266.94
2018-08-22T05:24:10.236Z,99268.53
2018-08-22T05:27:12.491Z,99262.72
2018-08-22T05:30:14.721Z,99262.88
2018-08-22T05:33:16.910Z,99271.31
2018-08-22T05:36:19.105Z,99269.82
2018-08-22T05:39:21.349Z,99263.15
2018-08-22T05:42:23.532Z,99264.02
2018-08-22T05:45:25.766Z,99265.36
2018-08-22T05:48:28.055Z,99268.78
2018-08-22T05:51:30.312Z,99263.59
2018-08-22T05:54:32.541Z,99264.97
2018-08-22T05:57:34.790Z,99260.98
2018-08-22T06:00:36.995Z,99256.55
2018-08-22T06:03:39.192Z,99259.27
2018-08-22T06:06:41.421Z,99246.77
2018-08-22T06:09:43.658Z,99250.12
2018-08-22T06:12:45.759Z,99245.36
2018-08-22T06:15:48.035Z,99247.44
2018-08-22T06:18:50.198Z,99240.91
2018-08-22T06:21:52.402Z,99240.42
2018-08-22T06:24:54.617Z,99238.33
2018-08-22T06:27:56.873Z,99235.20
2018-08-22T06:30:59.156Z,99240.93
2018-08-22T06:34:01.352Z,99235.12
2018-08-22T06:37:03.708Z,99232.55
2018-08-22T06:40:06.206Z,99231.56
2018-08-22T06:43:08.383Z,99222.59
2018-08-22T06:46:10.575Z,99227.23
2018-08-22T06:49:12.840Z,99229.04
2018-08-22T06:52:15.122Z,99227.54
2018-08-22T06:55:17.412Z,99238.06
2018-08-22T06:58:19.630Z,99247.73
2018-08-22T07:01:21.928Z,99236.38
2018-08-22T07:04:24.116Z,99228.06
2018-08-22T07:07:26.352Z,99224.77
2018-08-22T07:10:28.591Z,99233.22
2018-08-22T07:13:30.797Z,99224.61
2018-08-22T07:16:33.018Z,99220.12
2018-08-22T07:19:35.380Z,99215.33
2018-08-22T07:22:37.529Z,99217.52
2018-08-22T07:25:39.688Z,99223.30
2018-08-22T07:28:41.849Z,99222.96
2018-08-22T07:31:44.120Z,99224.81
2018-08-22T07:34:46.275Z,99226.44
2018-08-22T07:37:48.574Z,99223.61
2018-08-22T07:40:50.865Z,99229.31
2018-08-22T07:43:53.233Z,99230.22
2018-08-22T07:46:55.418Z,99237.05
2018-08-22T07:51:01.021Z,99237.57
2018-08-22T07:54:03.257Z,99238.07
2018-08-22T07:57:05.552Z,99236.23
2018-08-22T08:00:07.845Z,99234.09
2018-08-22T08:03:09.993Z,99227.65
2018-08-22T08:06:12.275Z,99235.58
2018-08-22T08:09:15.678Z,99240.44
2018-08-22T08:12:19.522Z,99238.20
2018-08-22T08:15:21.722Z,99242.45
2018-08-22T08:18:23.942Z,99230.67
2018-08-22T08:21:26.266Z,99233.16
2018-08-22T08:24:28.518Z,99230.11
2018-08-22T08:27:30.847Z,99226.41
2018-08-22T08:30:33.134Z,99227.56
2018-08-22T08:33:35.367Z,99225.31
2018-08-22T08:36:37.544Z,99223.85
2018-08-22T08:39:39.871Z,99219.55
2018-08-22T08:42:42.125Z,99222.24
2018-08-22T08:45:44.300Z,99215.76
2018-08-22T08:48:47.410Z,99212.59
2018-08-22T08:51:55.784Z,99204.78
2018-08-22T08:54:58.301Z,99204.97
2018-08-22T08:58:00.575Z,99199.40
2018-08-22T09:01:02.819Z,99202.15
2018-08-22T09:04:05.091Z,99200.54
2018-08-22T09:07:07.264Z,99198.38
2018-08-22T09:10:09.474Z,99189.29
2018-08-22T09:13:13.202Z,99198.20
2018-08-22T09:16:15.869Z,99197.10
2018-08-22T09:19:18.099Z,99192.63
2018-08-22T09:22:20.399Z,99181.34
2018-08-22T09:25:22.616Z,99174.52
2018-08-22T09:28:25.843Z,99167.41
2018-08-22T09:31:29.027Z,99169.53
2018-08-22T09:34:31.289Z,99167.44
2018-08-22T09:37:33.536Z,99170.72
2018-08-22T09:40:35.747Z,99166.23
2018-08-22T09:43:38.029Z,99159.95
2018-08-22T09:46:40.496Z,99161.07
2018-08-22T09:49:42.685Z,99157.18
2018-08-22T09:52:44.993Z,99147.63
2018-08-22T09:55:47.256Z,99151.56
2018-08-22T09:58:49.491Z,99146.23
2018-08-22T10:01:51.823Z,99143.53
2018-08-22T10:04:54.355Z,99146.95
2018-08-22T10:07:56.911Z,99141.20
2018-08-22T10:10:59.177Z,99134.86
2018-08-22T10:14:01.465Z,99131.52
2018-08-22T10:17:03.868Z,99125.52
2018-08-22T10:20:06.156Z,99120.73
2018-08-22T10:23:08.360Z,99119.38
2018-08-22T10:26:10.707Z,99117.45
2018-08-22T10:29:12.928Z,99109.45
2018-08-22T10:32:15.168Z,99103.06
2018-08-22T10:35:17.481Z,99100.70
2018-08-22T10:38:19.706Z,99096.38
2018-08-22T10:41:22.030Z,99089.65
2018-08-22T10:44:24.261Z,99071.97
2018-08-22T10:47:26.467Z,99085.42
2018-08-22T10:50:28.895Z,99080.59
2018-08-22T10:53:31.198Z,99079.28
2018-08-22T10:56:33.501Z,99073.44
2018-08-22T10:59:35.756Z,99069.08
2018-08-22T11:02:38.117Z,99053.30
2018-08-22T11:05:40.385Z,99064.69
2018-08-22T11:08:42.679Z,99060.06
2018-08-22T11:11:45.037Z,99067.75
2018-08-22T11:14:47.538Z,99062.63
2018-08-22T11:17:49.867Z,99057.39
2018-08-22T11:20:52.295Z,99051.67
2018-08-22T11:24:05.982Z,99041.28
2018-08-22T11:27:19.660Z,99046.48
2018-08-22T11:30:34.450Z,99024.27
2018-08-22T11:33:48.338Z,99038.52
2018-08-22T11:36:57.372Z,99012.17
2018-08-22T11:39:59.540Z,99025.07
2018-08-22T11:43:01.884Z,99011.47
2018-08-22T11:46:04.117Z,99013.73
2018-08-22T11:49:06.349Z,99040.40
2018-08-22T11:52:08.532Z,99044.64
2018-08-22T11:55:10.787Z,99030.81
2018-08-22T11:58:13.136Z,98983.05
2018-08-22T12:01:15.395Z,98999.59
2018-08-22T12:04:18.006Z,99009.68
2018-08-22T12:07:20.247Z,99038.07
2018-08-22T12:10:27.080Z,99029.62
2018-08-22T12:13:29.370Z,99005.17
2018-08-22T12:16:31.647Z,99020.96
2018-08-22T12:19:33.932Z,99037.84
2018-08-22T12:22:36.172Z,99009.13
2018-08-22T12:25:38.371Z,98999.25
2018-08-22T12:28:40.677Z,98990.39
2018-08-22T12:31:42.990Z,98993.10
2018-08-22T12:34:45.299Z,99001.83
2018-08-22T12:37:47.663Z,98984.33
2018-08-22T12:40:49.891Z,98996.06
2018-08-22T12:43:52.193Z,98970.63
2018-08-22T12:46:54.424Z,98957.23
2018-08-22T12:49:56.653Z,98966.56
2018-08-22T12:52:58.892Z,98974.40
2018-08-22T12:56:01.236Z,98982.92
2018-08-22T12:59:04.465Z,98951.58
2018-08-22T13:02:06.891Z,98958.23
2018-08-22T13:05:09.261Z,98986.81
2018-08-22T13:08:11.543Z,98957.72
2018-08-22T13:11:13.839Z,98965.61
2018-08-22T13:14:16.047Z,98937.34
2018-08-22T13:17:18.277Z,98893.59
2018-08-22T13:20:20.667Z,98904.31
2018-08-22T13:23:22.954Z,98925.98
2018-08-22T13:26:25.152Z,98911.82
2018-08-22T13:29:27.326Z,98933.04
2018-08-22T13:32:29.924Z,98936.52
2018-08-22T13:35:32.182Z,98965.94
2018-08-22T13:38:34.459Z,98942.55
2018-08-22T13:41:36.664Z,98933.80
2018-08-22T13:44:38.972Z,98916.83
2018-08-22T13:47:41.209Z,98913.28
2018-08-22T13:50:43.512Z,98895.09
2018-08-22T13:53:45.789Z,98847.09
2018-08-22T13:56:48.006Z,98874.63
2018-08-22T13:59:50.251Z,98832.02
2018-08-22T14:02:52.520Z,98816.50
2018-08-22T14:05:54.755Z,98914.94
2018-08-22T14:08:57.120Z,99006.81
2018-08-22T14:11:59.497Z,98962.31
2018-08-22T14:15:01.893Z,98961.44
2018-08-22T14:18:04.231Z,98932.41
2018-08-22T14:21:06.632Z,98910.04
2018-08-22T14:24:08.950Z,98890.43
2018-08-22T14:27:11.107Z,98828.51
2018-08-22T14:30:13.286Z,98844.58
2018-08-22T14:33:15.464Z,98846.02
2018-08-22T14:36:17.722Z,98856.13
2018-08-22T14:39:20.099Z,98803.85
2018-08-22T14:42:22.347Z,98811.08
2018-08-22T14:45:24.735Z,98825.95
2018-08-22T14:48:26.990Z,98833.16
2018-08-22T14:51:29.466Z,98929.50
2018-08-22T14:54:31.718Z,98958.30
2018-08-22T14:57:34.170Z,98950.86
2018-08-22T15:00:36.439Z,98927.20
2018-08-22T15:03:38.911Z,98954.34
2018-08-22T15:06:41.177Z,98907.46
2018-08-22T15:09:43.393Z,98906.05
2018-08-22T15:12:46.202Z,98879.82
2018-08-22T15:15:49.909Z,98834.34
2018-08-22T15:18:52.489Z,98831.45
2018-08-22T15:21:54.828Z,98852.27
2018-08-22T15:24:57.292Z,98849.69
2018-08-22T15:27:59.660Z,98853.81
2018-08-22T15:31:02.006Z,98846.66
2018-08-22T15:34:04.421Z,98827.61
2018-08-22T15:37:08.940Z,98834.77
2018-08-22T15:40:11.322Z,98834.57
2018-08-22T15:43:13.738Z,98846.80
2018-08-22T15:46:16.070Z,98842.29
2018-08-22T15:49:18.372Z,98846.51
2018-08-22T15:52:21.909Z,98833.50
2018-08-22T15:55:24.219Z,98871.03
2018-08-22T15:58:26.456Z,98908.94
2018-08-22T16:01:28.729Z,98902.30
2018-08-22T16:04:43.439Z,98888.16
2018-08-22T16:07:45.967Z,98856.12
2018-08-22T16:10:48.450Z,98819.11
2018-08-22T16:13:50.686Z,98796.05
2018-08-22T16:16:52.980Z,98781.66
2018-08-22T16:19:55.297Z,98754.59
2018-08-22T16:22:57.567Z,98801.33
2018-08-22T16:26:00.939Z,98809.12
2018-08-22T16:29:03.199Z,98799.09
2018-08-22T16:32:05.455Z,98862.72
2018-08-22T16:35:08.296Z,98891.45
2018-08-22T16:38:12.079Z,98866.83
2018-08-22T16:41:15.326Z,98850.92
2018-08-22T16:44:17.622Z,98812.18
2018-08-22T16:47:24.866Z,98805.23
2018-08-22T16:50:27.453Z,98784.06
2018-08-22T16:53:29.713Z,98763.64
2018-08-22T16:56:33.130Z,98792.48
2018-08-22T16:59:35.409Z,98771.63
2018-08-22T17:02:37.619Z,98785.27
2018-08-22T17:05:39.892Z,98807.84
2018-08-22T17:08:42.117Z,98811.77
2018-08-22T17:11:44.402Z,98801.93
2018-08-22T17:14:46.982Z,98793.83
2018-08-22T17:17:49.252Z,98827.80
2018-08-22T17:20:51.598Z,98851.52
2018-08-22T17:23:53.761Z,98854.78
2018-08-22T17:26:55.994Z,98855.45
2018-08-22T17:29:58.215Z,98854.81
2018-08-22T17:33:00.498Z,98837.02
2018-08-22T17:36:02.844Z,98836.94
2018-08-22T17:39:06.629Z,98841.98
2018-08-22T17:42:08.903Z,98845.25
2018-08-22T17:45:32.265Z,98866.06
2018-08-22T17:48:34.780Z,98854.73
2018-08-22T17:52:10.631Z,98861.11
2018-08-22T17:55:12.963Z,98868.02
2018-08-22T17:58:15.213Z,98868.88
2018-08-22T18:01:17.462Z,98876.88
2018-08-22T18:04:19.790Z,98874.75
2018-08-22T18:07:22.194Z,98873.17
2018-08-22T18:10:24.489Z,98874.91
2018-08-22T18:13:27.041Z,98868.19
2018-08-22T18:16:29.394Z,98864.18
2018-08-22T18:19:31.917Z,98867.09
2018-08-22T18:22:35.671Z,98861.27
2018-08-22T18:25:45.120Z,98867.16
2018-08-22T18:28:47.445Z,98861.72
2018-08-22T18:31:50.175Z,98876.61
2018-08-22T18:35:07.138Z,98873.73
2018-08-22T18:38:09.422Z,98890.92
2018-08-22T18:41:11.674Z,98886.92
2018-08-22T18:44:15.510Z,98890.09
2018-08-22T18:47:17.883Z,98899.17
2018-08-22T18:50:20.213Z,98904.21
2018-08-22T18:53:22.516Z,98905.50
2018-08-22T18:56:24.727Z,98907.00
2018-08-22T18:59:26.962Z,98906.59
2018-08-22T19:02:29.132Z,98916.56
2018-08-22T19:05:33.726Z,98922.38
2018-08-22T19:08:37.095Z,98929.48
2018-08-22T19:11:39.388Z,98927.03
2018-08-22T19:14:46.167Z,98930.42
2018-08-22T19:17:48.484Z,98929.06
2018-08-22T19:20:55.359Z,98927.42
2018-08-22T19:24:03.990Z,98930.31
2018-08-22T19:27:06.198Z,98928.58
2018-08-22T19:30:08.486Z,98936.20
2018-08-22T19:33:14.796Z,98936.83
2018-08-22T19:36:17.050Z,98936.95
2018-08-22T19:39:19.353Z,98936.19
2018-08-22T19:42:21.717Z,98944.39
2018-08-22T19:45:23.935Z,98944.67
2018-08-22T19:48:26.303Z,98949.58
2018-08-22T19:51:28.696Z,98952.19
2018-08-22T19:54:31.141Z,98958.60
2018-08-22T19:57:34.726Z,98952.02
2018-08-22T20:00:37.173Z,98956.80
2018-08-22T20:03:39.501Z,98956.73
2018-08-22T20:06:41.749Z,98956.83
2018-08-22T20:09:44.024Z,98962.92
2018-08-22T20:12:48.545Z,98962.15
2018-08-22T20:15:51.813Z,98955.76
2018-08-22T20:18:55.193Z,98957.42
2018-08-22T20:21:57.372Z,98963.56
2018-08-22T20:25:00.969Z,98972.84
2018-08-22T20:28:03.244Z,98971.55
2018-08-22T20:31:10.092Z,98972.44
2018-08-22T20:34:13.770Z,98972.24
2018-08-22T20:37:16.088Z,98968.77
2018-08-22T20:40:18.881Z,98975.17
2018-08-22T20:43:25.732Z,98974.08
2018-08-22T20:46:27.996Z,98979.16
2018-08-22T20:49:30.359Z,98972.31
2018-08-22T20:52:32.622Z,98984.09
2018-08-22T20:55:35.979Z,98980.83
2018-08-22T20:58:40.946Z,98990.02
2018-08-22T21:01:44.981Z,98984.86
2018-08-22T21:04:47.617Z,98985.69
2018-08-22T21:07:49.902Z,98982.56
2018-08-22T21:10:53.182Z,98984.33
2018-08-22T21:13:55.518Z,98985.03
2018-08-22T21:16:57.673Z,98989.16
2018-08-22T21:20:02.813Z,98989.05
2018-08-22T21:23:05.128Z,98981.83
2018-08-22T21:26:07.443Z,98984.59
2018-08-22T21:29:09.907Z,98989.72
2018-08-22T21:32:12.153Z,98980.66
2018-08-22T21:35:20.151Z,98980.19
2018-08-22T21:38:22.436Z,98981.72
2018-08-22T21:41:24.804Z,98983.33
2018-08-22T21:44:27.033Z,98991.39
2018-08-22T21:47:29.539Z,98987.92
2018-08-22T21:50:31.814Z,98989.92
2018-08-22T21:53:34.143Z,98983.84
2018-08-22T21:56:37.934Z,98987.45
2018-08-22T21:59:40.242Z,98984.42
2018-08-22T22:02:43.411Z,98986.03
2018-08-22T22:06:08.520Z,98993.16
2018-08-22T22:09:10.853Z,98997.75
2018-08-22T22:12:18.855Z,99000.64
2018-08-22T22:15:26.792Z,98996.45
2018-08-22T22:18:30.751Z,98994.20
2018-08-22T22:21:34.178Z,98995.33
2018-08-22T22:24:50.425Z,98992.09
2018-08-22T22:27:52.751Z,98990.02
2018-08-22T22:30:54.910Z,98994.05
2018-08-22T22:33:59.985Z,98989.44
2018-08-22T22:37:02.242Z,98998.30
2018-08-22T22:40:04.926Z,98997.95
2018-08-22T22:43:09.800Z,99001.89
2018-08-22T22:46:11.970Z,98994.38
2018-08-22T22:49:14.199Z,98997.09
2018-08-22T22:52:25.855Z,98996.73
2018-08-22T22:55:28.060Z,98991.95
2018-08-22T22:58:30.924Z,98991.44
2018-08-22T23:01:33.163Z,98993.81
2018-08-22T23:04:43.882Z,98993.42
2018-08-22T23:07:46.041Z,98996.08
2018-08-22T23:10:48.180Z,98988.16
2018-08-22T23:13:50.393Z,98985.80
2018-08-22T23:16:52.681Z,98995.39
2018-08-22T23:20:13.969Z,98985.28
2018-08-22T23:23:31.550Z,98985.06
2018-08-22T23:26:33.875Z,98989.72
2018-08-22T23:29:36.153Z,98989.28
2018-08-22T23:32:38.596Z,98985.03
2018-08-22T23:35:40.946Z,98978.45
2018-08-22T23:38:43.185Z,98976.87
2018-08-22T23:41:45.430Z,98971.11
2018-08-22T23:44:48.333Z,98973.02
2018-08-22T23:47:50.626Z,98968.78
2018-08-22T23:50:58.950Z,98970.08
2018-08-22T23:54:01.193Z,98967.30
2018-08-22T23:57:04.569Z,98966.81
